Time;durP1;ratioP1;P1;durP2;ratioP2;P2;SDS_P1;SDS_P2;PMS_P1;PMS_P2;Temp;Humidity;BMP_temperature;BMP_pressure;BME280_temperature;BME280_humidity;BME280_pressure;Samples;Min_cycle;Max_cycle;Signal;HPM_P1;HPM_P2
2022/12/06 00:21:07;;;;;;;0.20;0.20;;;5.60;92.50;;;;;;4761393;30;20047;-76
2022/12/06 00:23:36;;;;;;;0.10;0.10;;;5.50;92.50;;;;;;4743817;30;20053;-76
2022/12/06 00:26:02;;;;;;;0.22;0.20;;;5.50;92.50;;;;;;4783638;29;20497;-76
2022/12/06 00:28:27;;;;;;;0.20;0.20;;;5.60;92.60;;;;;;4803959;30;20047;-76
2022/12/06 00:30:58;;;;;;;0.32;0.30;;;5.60;92.60;;;;;;4797831;30;20128;-76
2022/12/06 00:33:24;;;;;;;0.28;0.28;;;5.60;92.60;;;;;;4786122;30;20047;-76
2022/12/06 00:35:57;;;;;;;0.20;0.20;;;5.60;92.60;;;;;;4785077;30;20115;-76
2022/12/06 00:38:24;;;;;;;0.43;0.20;;;5.60;92.60;;;;;;4811724;29;20082;-76
2022/12/06 00:40:50;;;;;;;0.50;0.35;;;5.60;92.60;;;;;;4872695;29;20053;-76
2022/12/06 00:43:15;;;;;;;0.52;0.30;;;5.60;92.60;;;;;;4890809;29;20048;-76
2022/12/06 00:45:43;;;;;;;0.50;0.30;;;5.60;92.60;;;;;;4915817;29;20044;-76
2022/12/06 00:48:08;;;;;;;0.47;0.30;;;5.60;92.70;;;;;;4950523;29;20051;-76
2022/12/06 00:50:35;;;;;;;0.45;0.32;;;5.50;92.60;;;;;;4947572;29;20059;-78
2022/12/06 00:53:00;;;;;;;0.65;0.50;;;5.60;92.70;;;;;;4962476;28;20041;-77
2022/12/06 00:55:26;;;;;;;0.45;0.40;;;5.50;92.60;;;;;;5014087;28;20073;-77
2022/12/06 00:57:52;;;;;;;0.30;0.20;;;5.60;92.70;;;;;;5094399;28;20096;-77
2022/12/06 01:00:18;;;;;;;0.35;0.30;;;5.60;92.70;;;;;;5115630;28;20028;-77
2022/12/06 01:02:43;;;;;;;0.20;0.20;;;5.60;92.70;;;;;;5114654;28;20040;-77
2022/12/06 01:05:09;;;;;;;0.20;0.20;;;5.60;92.70;;;;;;5096752;28;20042;-78
2022/12/06 01:07:34;;;;;;;0.50;0.40;;;5.60;92.70;;;;;;5114436;28;20124;-77
2022/12/06 01:10:00;;;;;;;0.70;0.40;;;5.60;92.70;;;;;;5096655;28;20048;-78
2022/12/06 01:12:26;;;;;;;0.52;0.40;;;5.60;92.70;;;;;;5115187;28;20086;-77
2022/12/06 01:14:51;;;;;;;0.50;0.40;;;5.70;92.70;;;;;;5096382;28;20103;-77
2022/12/06 01:17:17;;;;;;;0.32;0.30;;;5.60;92.70;;;;;;5099547;28;20103;-78
2022/12/06 01:19:42;;;;;;;0.73;0.30;;;5.70;92.70;;;;;;5116814;28;20036;-78
2022/12/06 01:22:08;;;;;;;0.10;0.10;;;5.70;92.70;;;;;;5117210;28;20028;-77
2022/12/06 01:24:34;;;;;;;0.32;0.30;;;5.70;92.70;;;;;;5117449;28;20055;-77
2022/12/06 01:26:59;;;;;;;0.55;0.40;;;5.60;92.70;;;;;;5098707;28;20051;-77
2022/12/06 01:29:25;;;;;;;0.28;0.20;;;5.60;92.70;;;;;;5082311;28;20044;-77
2022/12/06 01:31:50;;;;;;;0.70;0.50;;;5.60;92.70;;;;;;5099056;28;20069;-77
2022/12/06 01:34:16;;;;;;;0.52;0.40;;;5.70;92.70;;;;;;5116956;28;20047;-78
2022/12/06 01:36:43;;;;;;;0.52;0.40;;;5.70;92.70;;;;;;5116152;28;20024;-77
2022/12/06 01:39:09;;;;;;;0.35;0.35;;;5.70;92.70;;;;;;5097908;28;20047;-78
2022/12/06 01:41:36;;;;;;;0.55;0.40;;;5.70;92.70;;;;;;5094804;28;20047;-77
2022/12/06 01:44:04;;;;;;;0.77;0.50;;;5.80;92.80;;;;;;5110156;28;20052;-77
2022/12/06 01:46:44;;;;;;;0.50;0.50;;;5.60;92.70;;;;;;5114381;28;20117;-78
2022/12/06 01:49:19;;;;;;;0.20;0.20;;;5.70;92.70;;;;;;5060653;28;20048;-77
2022/12/06 01:51:50;;;;;;;0.60;0.40;;;5.60;92.70;;;;;;5093606;28;20051;-77
2022/12/06 01:54:17;;;;;;;0.40;0.40;;;5.70;92.70;;;;;;5091758;28;20132;-77
2022/12/06 01:56:43;;;;;;;0.68;0.38;;;5.70;92.70;;;;;;5105318;28;20274;-77
2022/12/06 01:59:09;;;;;;;0.60;0.50;;;5.70;92.70;;;;;;5107025;28;20036;-77
2022/12/06 02:01:37;;;;;;;0.60;0.32;;;5.70;92.70;;;;;;5105642;28;20129;-77
2022/12/06 02:04:03;;;;;;;0.60;0.38;;;5.70;92.70;;;;;;5103742;28;20036;-77
2022/12/06 02:06:30;;;;;;;0.85;0.35;;;5.60;92.70;;;;;;5072862;28;20048;-77
2022/12/06 02:08:59;;;;;;;0.50;0.40;;;5.70;92.70;;;;;;5105009;28;20044;-77
2022/12/06 02:11:25;;;;;;;0.73;0.45;;;5.70;92.70;;;;;;5091395;28;20064;-77
2022/12/06 02:13:51;;;;;;;0.52;0.43;;;5.70;92.70;;;;;;5111043;28;20410;-77
2022/12/06 02:16:41;;;;;;;0.70;0.57;;;5.70;92.70;;;;;;5111329;28;20050;-78
2022/12/06 02:19:39;;;;;;;0.75;0.52;;;5.70;92.70;;;;;;5110265;28;20028;-77
2022/12/06 02:22:15;;;;;;;1.15;0.47;;;5.70;92.70;;;;;;5097243;28;20040;-78
2022/12/06 02:25:09;;;;;;;0.85;0.30;;;5.70;92.70;;;;;;5110930;28;20540;-77
2022/12/06 02:27:54;;;;;;;0.50;0.40;;;5.70;92.70;;;;;;5109576;28;20039;-77
2022/12/06 02:30:35;;;;;;;0.47;0.40;;;5.70;92.70;;;;;;5112175;28;20036;-78
2022/12/06 02:33:22;;;;;;;0.45;0.20;;;5.70;92.70;;;;;;5093112;28;20112;-77
2022/12/06 02:36:03;;;;;;;0.75;0.40;;;5.70;92.70;;;;;;5112044;28;20391;-78
2022/12/06 02:38:37;;;;;;;0.98;0.50;;;5.70;92.70;;;;;;5113771;28;20112;-78
2022/12/06 02:41:13;;;;;;;0.40;0.30;;;5.70;92.70;;;;;;5116958;28;20047;-77
2022/12/06 02:43:44;;;;;;;0.47;0.40;;;5.70;92.70;;;;;;5115448;28;20130;-77
2022/12/06 02:46:12;;;;;;;0.80;0.50;;;5.70;92.70;;;;;;5097884;28;20040;-77
2022/12/06 02:48:39;;;;;;;0.80;0.50;;;5.70;92.80;;;;;;5096180;28;20051;-77
2022/12/06 02:51:10;;;;;;;0.30;0.30;;;5.70;92.70;;;;;;5095089;28;20040;-77
2022/12/06 02:53:37;;;;;;;;;;;5.70;92.70;;;;;;5109593;28;20036;-77
2022/12/06 02:56:04;;;;;;;0.32;0.22;;;5.70;92.70;;;;;;5093912;28;20301;-77
2022/12/06 02:58:35;;;;;;;0.40;0.40;;;5.70;92.60;;;;;;5111940;28;20055;-77
2022/12/06 03:01:03;;;;;;;;;;;5.70;92.70;;;;;;5109176;28;20048;-77
2022/12/06 03:03:53;;;;;;;0.95;0.40;;;5.70;92.70;;;;;;5089755;28;19919;-77
2022/12/06 03:06:46;;;;;;;0.20;0.20;;;5.70;92.70;;;;;;5080614;28;20060;-78
2022/12/06 03:09:25;;;;;;;0.50;0.30;;;5.70;92.70;;;;;;5099642;28;20048;-78
2022/12/06 03:12:15;;;;;;;0.57;0.40;;;5.70;92.60;;;;;;5093143;28;20039;-77
2022/12/06 03:14:53;;;;;;;0.52;0.38;;;5.70;92.70;;;;;;5093510;28;20070;-77
2022/12/06 03:17:37;;;;;;;0.43;0.43;;;5.70;92.70;;;;;;5097059;28;20093;-77
2022/12/06 03:20:11;;;;;;;0.30;0.30;;;5.70;92.70;;;;;;5110937;28;20135;-77
2022/12/06 03:22:41;;;;;;;1.02;0.50;;;5.80;92.70;;;;;;5093098;28;20367;-78
2022/12/06 03:25:09;;;;;;;0.80;0.57;;;5.60;92.60;;;;;;5112392;28;20104;-77
2022/12/06 03:27:35;;;;;;;0.90;0.60;;;5.70;92.70;;;;;;5110580;28;20047;-77
2022/12/06 03:30:07;;;;;;;0.47;0.38;;;5.70;92.70;;;;;;5094244;28;20028;-77
2022/12/06 03:32:34;;;;;;;1.33;0.60;;;5.60;92.70;;;;;;5112972;28;20108;-77
2022/12/06 03:35:06;;;;;;;0.70;0.50;;;5.70;92.70;;;;;;5074678;28;20042;-78
2022/12/06 03:37:34;;;;;;;1.55;0.88;;;5.70;92.70;;;;;;5091874;28;20069;-78
2022/12/06 03:40:24;;;;;;;1.58;0.77;;;5.60;92.70;;;;;;5089318;28;20044;-77
2022/12/06 03:42:51;;;;;;;0.57;0.50;;;5.60;92.70;;;;;;5092985;28;20035;-78
2022/12/06 03:45:17;;;;;;;1.02;0.63;;;5.60;92.70;;;;;;5089543;28;20042;-77
2022/12/06 03:48:01;;;;;;;0.60;0.50;;;5.60;92.70;;;;;;5088423;28;20393;-77
2022/12/06 03:50:32;;;;;;;1.23;0.80;;;5.60;92.70;;;;;;5103323;28;20048;-77
2022/12/06 03:53:00;;;;;;;1.52;0.70;;;5.60;92.70;;;;;;5102949;28;20065;-77
2022/12/06 03:55:29;;;;;;;0.63;0.47;;;5.60;92.70;;;;;;5099974;28;20402;-77
2022/12/06 03:57:55;;;;;;;2.00;0.80;;;5.60;92.70;;;;;;5047090;28;20050;-77
2022/12/06 04:00:20;;;;;;;1.52;0.77;;;5.60;92.70;;;;;;5045827;28;20075;-77
2022/12/06 04:02:46;;;;;;;1.48;0.90;;;5.60;92.70;;;;;;5100042;28;20089;-77
2022/12/06 04:05:12;;;;;;;1.30;0.65;;;5.60;92.70;;;;;;5088084;28;20066;-77
2022/12/06 04:07:37;;;;;;;1.63;0.68;;;5.50;93.00;;;;;;5089069;28;20044;-77
2022/12/06 04:10:04;;;;;;;0.93;0.60;;;5.50;92.70;;;;;;5073170;28;20097;-77
2022/12/06 04:15:17;;;;;;;1.75;0.80;;;5.50;92.80;;;;;;5110781;28;20467;-77
2022/12/06 04:20:28;;;;;;;2.60;0.88;;;5.50;92.80;;;;;;5091606;28;20060;-76
2022/12/06 04:23:09;;;;;;;1.10;0.57;;;5.40;93.00;;;;;;5085368;28;20047;-76
2022/12/06 04:25:35;;;;;;;1.95;1.00;;;5.40;92.80;;;;;;5087975;28;20044;-77
2022/12/06 04:38:48;;;;;;;0.60;0.60;;;5.40;92.70;;;;;;5091909;28;20036;-76
2022/12/06 04:43:58;;;;;;;1.00;0.52;;;5.40;92.80;;;;;;5107539;28;20127;-77
2022/12/06 04:46:24;;;;;;;0.68;0.52;;;5.40;92.80;;;;;;5110231;28;20044;-76
2022/12/06 04:48:49;;;;;;;1.63;0.70;;;5.40;92.80;;;;;;5092197;28;20115;-77
2022/12/06 04:51:15;;;;;;;0.75;0.50;;;5.40;92.80;;;;;;5095447;28;20047;-77
2022/12/06 04:53:41;;;;;;;1.02;0.70;;;5.40;92.80;;;;;;5112611;28;20044;-77
2022/12/06 04:56:07;;;;;;;1.33;0.70;;;5.40;92.80;;;;;;5094076;28;20040;-77
2022/12/06 04:58:33;;;;;;;0.50;0.50;;;5.40;92.80;;;;;;5096904;28;20047;-77
2022/12/06 05:00:58;;;;;;;1.25;0.70;;;5.40;92.80;;;;;;5111420;28;20075;-77
2022/12/06 05:03:24;;;;;;;1.23;0.70;;;5.40;92.80;;;;;;5096687;28;20047;-76
2022/12/06 05:05:50;;;;;;;1.27;0.75;;;5.40;92.80;;;;;;5098599;28;20069;-77
2022/12/06 05:08:16;;;;;;;0.50;0.50;;;5.40;92.80;;;;;;5097673;28;20099;-77
2022/12/06 05:10:46;;;;;;;0.70;0.50;;;5.30;92.80;;;;;;5117207;28;20068;-77
2022/12/06 05:13:13;;;;;;;1.33;0.70;;;5.30;92.80;;;;;;5114477;28;20044;-77
2022/12/06 05:15:38;;;;;;;0.50;0.40;;;5.40;92.90;;;;;;5079916;28;20073;-77
2022/12/06 05:18:04;;;;;;;0.43;0.35;;;5.40;92.80;;;;;;5114893;28;20090;-77
2022/12/06 05:20:30;;;;;;;0.80;0.57;;;5.40;92.90;;;;;;5117019;28;20059;-77
2022/12/06 05:22:55;;;;;;;0.35;0.32;;;5.40;92.90;;;;;;5113643;28;20039;-77
2022/12/06 05:25:21;;;;;;;0.88;0.47;;;5.40;92.90;;;;;;5094579;28;20043;-77
2022/12/06 05:27:47;;;;;;;0.98;0.50;;;5.30;92.80;;;;;;5116361;28;20047;-77
2022/12/06 05:30:12;;;;;;;0.50;0.45;;;5.30;92.80;;;;;;5112594;28;20024;-77
2022/12/06 05:32:39;;;;;;;0.85;0.60;;;5.30;92.80;;;;;;5092333;28;20107;-76
2022/12/06 05:35:06;;;;;;;0.60;0.50;;;5.30;92.80;;;;;;5096442;28;20040;-77
2022/12/06 05:37:32;;;;;;;1.30;0.50;;;5.40;92.90;;;;;;5061023;28;20131;-78
2022/12/06 05:39:57;;;;;;;0.55;0.50;;;5.30;92.80;;;;;;5096420;28;20036;-77
2022/12/06 05:42:23;;;;;;;1.23;0.52;;;5.30;92.80;;;;;;5114816;28;20044;-77
2022/12/06 05:44:48;;;;;;;0.55;0.40;;;5.40;92.90;;;;;;5115103;28;20023;-77
2022/12/06 05:47:14;;;;;;;0.47;0.47;;;5.30;92.80;;;;;;5097898;28;20036;-78
2022/12/06 05:49:40;;;;;;;0.50;0.50;;;5.40;92.90;;;;;;5115791;28;20481;-77
2022/12/06 05:52:06;;;;;;;0.95;0.70;;;5.30;92.90;;;;;;5115076;28;20055;-77
2022/12/06 05:54:32;;;;;;;0.70;0.45;;;5.30;92.90;;;;;;5114839;28;20068;-77
2022/12/06 05:56:57;;;;;;;1.38;0.77;;;5.20;92.80;;;;;;5082069;28;20062;-77
2022/12/06 05:59:23;;;;;;;0.57;0.40;;;5.20;92.80;;;;;;5097193;28;20032;-77
2022/12/06 06:01:49;;;;;;;0.57;0.43;;;5.30;92.90;;;;;;5096224;28;20055;-77
2022/12/06 06:04:14;;;;;;;0.63;0.50;;;5.30;92.90;;;;;;5113982;28;20069;-77
2022/12/06 06:06:40;;;;;;;0.30;0.30;;;5.30;92.90;;;;;;5113966;28;20048;-77
2022/12/06 06:09:05;;;;;;;0.82;0.57;;;5.30;92.90;;;;;;5113158;28;20108;-78
2022/12/06 06:11:31;;;;;;;0.50;0.40;;;5.40;92.90;;;;;;5110332;28;20093;-78
2022/12/06 06:13:57;;;;;;;0.30;0.30;;;5.20;92.90;;;;;;5109528;28;20071;-78
2022/12/06 06:16:22;;;;;;;0.90;0.52;;;5.30;92.90;;;;;;5065656;28;20066;-80
2022/12/06 06:18:48;;;;;;;0.98;0.45;;;5.20;92.90;;;;;;5081097;28;20052;-80
2022/12/06 06:21:13;;;;;;;0.80;0.50;;;5.20;92.90;;;;;;5102270;28;20036;-80
2022/12/06 06:23:39;;;;;;;0.55;0.38;;;5.20;92.90;;;;;;5079695;28;20040;-80
2022/12/06 06:26:08;;;;;;;0.65;0.40;;;5.20;92.90;;;;;;5066402;28;20060;-79
2022/12/06 06:28:34;;;;;;;0.73;0.50;;;5.20;92.90;;;;;;5094625;28;20065;-80
2022/12/06 06:31:04;;;;;;;0.80;0.50;;;5.20;92.90;;;;;;5076668;28;20505;-79
2022/12/06 06:33:34;;;;;;;0.82;0.50;;;5.20;92.90;;;;;;5094685;28;20076;-79
2022/12/06 06:35:59;;;;;;;1.10;0.60;;;5.20;92.90;;;;;;5076523;28;20040;-79
2022/12/06 06:38:25;;;;;;;1.27;0.60;;;5.10;92.90;;;;;;5059144;28;20375;-80
2022/12/06 06:40:51;;;;;;;1.80;0.47;;;5.10;92.90;;;;;;5076012;28;20048;-80
2022/12/06 06:43:17;;;;;;;0.93;0.50;;;5.10;93.20;;;;;;5093970;28;20048;-80
2022/12/06 06:45:53;;;;;;;1.63;0.65;;;5.10;93.00;;;;;;5075810;28;20048;-79
2022/12/06 06:48:19;;;;;;;0.40;0.40;;;5.10;93.00;;;;;;5074221;28;20047;-80
2022/12/06 06:50:45;;;;;;;0.40;0.40;;;5.10;92.90;;;;;;5059757;28;20052;-80
2022/12/06 06:53:10;;;;;;;0.55;0.40;;;5.10;92.90;;;;;;5075687;28;20467;-80
2022/12/06 06:55:36;;;;;;;0.75;0.50;;;5.10;92.90;;;;;;5094377;28;20085;-80
2022/12/06 06:58:02;;;;;;;1.00;0.70;;;5.20;93.00;;;;;;5076485;28;20036;-79
2022/12/06 07:00:28;;;;;;;0.82;0.50;;;5.10;92.90;;;;;;5076210;28;20040;-79
2022/12/06 07:02:54;;;;;;;1.75;0.90;;;5.10;92.90;;;;;;5059610;28;20531;-79
2022/12/06 07:05:21;;;;;;;1.23;0.70;;;5.10;92.90;;;;;;5093837;28;20070;-80
2022/12/06 07:07:48;;;;;;;0.50;0.43;;;5.10;92.90;;;;;;5059391;28;20093;-79
2022/12/06 07:10:13;;;;;;;1.67;0.60;;;5.10;92.90;;;;;;5075681;28;20048;-80
2022/12/06 07:12:39;;;;;;;0.68;0.47;;;5.10;92.90;;;;;;5058333;28;20036;-79
2022/12/06 07:15:06;;;;;;;0.85;0.60;;;5.10;92.90;;;;;;5093565;28;20127;-79
2022/12/06 07:17:32;;;;;;;2.08;0.80;;;5.10;92.90;;;;;;5093978;28;20036;-80
2022/12/06 07:19:57;;;;;;;1.10;0.60;;;5.10;92.90;;;;;;5078488;28;20562;-76
2022/12/06 07:22:23;;;;;;;1.08;0.55;;;5.10;93.20;;;;;;5096447;28;20072;-80
2022/12/06 07:24:48;;;;;;;1.60;0.60;;;5.10;92.90;;;;;;5098205;28;20051;-80
2022/12/06 07:27:14;;;;;;;1.58;0.73;;;5.10;92.90;;;;;;5085499;28;20043;-80
2022/12/06 07:29:40;;;;;;;0.82;0.68;;;5.10;92.90;;;;;;5065809;28;20052;-80
2022/12/06 07:32:06;;;;;;;1.10;0.63;;;5.10;92.90;;;;;;5100185;28;20040;-80
2022/12/06 07:34:32;;;;;;;1.38;0.63;;;5.20;92.90;;;;;;5102284;28;20482;-80
2022/12/06 07:36:58;;;;;;;1.30;0.73;;;5.10;92.90;;;;;;5082051;28;20036;-80
2022/12/06 07:39:23;;;;;;;0.70;0.40;;;5.10;92.90;;;;;;5101628;28;20048;-80
2022/12/06 07:47:05;;;;;;;0.50;0.40;;;5.10;92.90;;;;;;5098254;28;20048;-81
2022/12/06 07:49:31;;;;;;;1.08;0.50;;;5.20;92.90;;;;;;5097515;28;20050;-81
2022/12/06 07:51:57;;;;;;;1.48;0.60;;;5.10;92.90;;;;;;5080503;28;20044;-80
2022/12/06 07:54:23;;;;;;;1.27;0.60;;;5.10;92.90;;;;;;5078341;28;20040;-80
2022/12/06 07:56:48;;;;;;;0.82;0.40;;;5.10;92.90;;;;;;5099074;28;20497;-81
2022/12/06 07:59:14;;;;;;;0.30;0.30;;;5.10;92.90;;;;;;5081710;28;20040;-81
2022/12/06 08:01:40;;;;;;;0.75;0.47;;;5.10;92.90;;;;;;5080233;28;20044;-81
2022/12/06 08:04:06;;;;;;;0.32;0.28;;;5.10;92.90;;;;;;5079448;28;20044;-81
2022/12/06 08:06:32;;;;;;;0.20;0.20;;;5.20;92.90;;;;;;5081331;28;20047;-81
2022/12/06 08:08:58;;;;;;;0.40;0.40;;;5.10;92.90;;;;;;5080580;28;20041;-81
2022/12/06 08:11:24;;;;;;;0.70;0.47;;;5.10;92.90;;;;;;5099025;28;20078;-82
2022/12/06 08:13:50;;;;;;;0.40;0.30;;;5.20;92.90;;;;;;5065957;28;20039;-81
2022/12/06 08:16:16;;;;;;;0.30;0.30;;;5.10;92.90;;;;;;5067381;28;20057;-81
2022/12/06 08:18:41;;;;;;;0.82;0.38;;;5.20;92.90;;;;;;5103888;28;20024;-81
2022/12/06 08:21:08;;;;;;;0.47;0.30;;;5.10;92.90;;;;;;5051658;28;20478;-81
2022/12/06 08:23:35;;;;;;;0.52;0.40;;;5.20;92.90;;;;;;5082364;28;20032;-81
2022/12/06 08:26:04;;;;;;;0.20;0.20;;;5.20;92.90;;;;;;5047099;28;20036;-81
2022/12/06 08:28:31;;;;;;;0.50;0.28;;;5.20;92.90;;;;;;5083131;28;20120;-81
2022/12/06 08:30:58;;;;;;;0.25;0.20;;;5.10;92.90;;;;;;5082516;28;20048;-80
2022/12/06 08:33:24;;;;;;;0.32;0.30;;;5.20;92.90;;;;;;5089098;28;20027;-79
2022/12/06 08:35:50;;;;;;;0.17;0.17;;;5.30;92.90;;;;;;5117620;28;20052;-79
2022/12/06 08:38:17;;;;;;;0.90;0.38;;;5.20;92.90;;;;;;5117741;28;20032;-78
2022/12/06 08:40:43;;;;;;;1.02;0.40;;;5.20;92.90;;;;;;5083091;28;20048;-78
2022/12/06 08:43:09;;;;;;;0.20;0.20;;;5.20;92.90;;;;;;5099740;28;20032;-79
2022/12/06 08:45:35;;;;;;;0.68;0.45;;;5.10;92.90;;;;;;5099866;28;20102;-79
2022/12/06 08:48:01;;;;;;;0.47;0.40;;;5.10;92.90;;;;;;5113765;28;20054;-79
2022/12/06 08:50:27;;;;;;;0.30;0.28;;;5.00;92.90;;;;;;5082286;28;20028;-79
2022/12/06 08:52:53;;;;;;;0.35;0.30;;;5.10;93.00;;;;;;5116859;28;20052;-79
2022/12/06 08:55:18;;;;;;;0.30;0.30;;;5.00;93.00;;;;;;5098722;28;20035;-79
2022/12/06 08:57:44;;;;;;;0.43;0.30;;;4.90;93.00;;;;;;5098310;28;20032;-80
2022/12/06 09:00:10;;;;;;;0.95;0.25;;;4.90;93.00;;;;;;5095664;28;20040;-79
2022/12/06 09:02:40;;;;;;;0.22;0.22;;;4.90;93.10;;;;;;5097822;28;20048;-79
2022/12/06 09:05:06;;;;;;;0.47;0.45;;;4.90;93.10;;;;;;5097754;28;20040;-79
2022/12/06 09:07:31;;;;;;;0.28;0.28;;;4.90;93.10;;;;;;5115250;28;20055;-79
2022/12/06 09:09:57;;;;;;;0.60;0.50;;;4.90;93.10;;;;;;5114743;28;20024;-79
2022/12/06 09:12:23;;;;;;;0.40;0.30;;;4.80;93.10;;;;;;5096791;28;20039;-80
2022/12/06 09:14:48;;;;;;;0.70;0.40;;;4.90;93.10;;;;;;5097761;28;20032;-79
2022/12/06 09:17:14;;;;;;;1.10;0.60;;;4.80;93.10;;;;;;5115951;28;20105;-79
2022/12/06 09:19:40;;;;;;;0.60;0.50;;;4.90;93.10;;;;;;5114189;28;20100;-79
2022/12/06 09:22:05;;;;;;;0.85;0.50;;;4.80;93.00;;;;;;5115044;28;20040;-78
2022/12/06 09:24:31;;;;;;;0.85;0.60;;;4.90;93.00;;;;;;5078906;28;20088;-78
2022/12/06 09:26:57;;;;;;;0.82;0.40;;;4.90;93.00;;;;;;5095244;28;20044;-78
2022/12/06 09:29:23;;;;;;;0.98;0.50;;;4.90;93.00;;;;;;5112161;28;20032;-78
2022/12/06 09:31:49;;;;;;;0.43;0.30;;;4.80;93.00;;;;;;5111661;28;20048;-78
2022/12/06 09:34:16;;;;;;;0.60;0.40;;;4.90;93.00;;;;;;5091137;28;20127;-79
2022/12/06 09:36:55;;;;;;;0.80;0.50;;;4.90;93.00;;;;;;5094656;28;20043;-78
2022/12/06 09:39:27;;;;;;;0.60;0.50;;;4.90;92.90;;;;;;5075025;28;20066;-80
2022/12/06 09:42:32;;;;;;;0.98;0.63;;;4.90;92.90;;;;;;5112870;28;20093;-79
2022/12/06 09:45:11;;;;;;;0.25;0.22;;;5.00;92.90;;;;;;5096673;28;20444;-78
2022/12/06 09:47:59;;;;;;;0.68;0.65;;;5.00;92.90;;;;;;5111319;28;20106;-79
2022/12/06 09:50:40;;;;;;;0.30;0.30;;;5.00;92.90;;;;;;5109594;28;20028;-78
2022/12/06 09:53:15;;;;;;;;;;;5.00;92.80;;;;;;5093549;28;20483;-78
2022/12/06 09:56:03;;;;;;;0.90;0.52;;;5.20;92.90;;;;;;5109137;28;19919;-79
2022/12/06 09:58:46;;;;;;;1.48;0.60;;;5.10;92.80;;;;;;5074030;28;20040;-80
2022/12/06 10:01:30;;;;;;;1.00;0.68;;;5.10;92.80;;;;;;5094936;28;20082;-79
2022/12/06 10:04:28;;;;;;;0.47;0.45;;;5.10;92.70;;;;;;5101911;28;20086;-80
2022/12/06 10:07:11;;;;;;;1.10;0.50;;;5.20;92.70;;;;;;5103322;28;20028;-79
2022/12/06 10:09:59;;;;;;;0.73;0.50;;;5.20;92.60;;;;;;5116015;28;20046;-80
2022/12/06 10:12:44;;;;;;;1.45;0.63;;;5.20;92.60;;;;;;5099336;28;20051;-79
2022/12/06 10:15:32;;;;;;;1.08;0.57;;;5.30;92.60;;;;;;5083937;28;20055;-79
2022/12/06 10:18:14;;;;;;;0.70;0.50;;;5.20;92.50;;;;;;5087624;28;20099;-79
2022/12/06 10:20:55;;;;;;;0.50;0.40;;;5.30;92.50;;;;;;5103485;28;20055;-80
2022/12/06 10:23:41;;;;;;;0.40;0.38;;;5.30;92.50;;;;;;5117840;28;20040;-80
2022/12/06 10:26:15;;;;;;;0.40;0.40;;;5.30;92.40;;;;;;5100791;28;20501;-80
2022/12/06 10:28:59;;;;;;;0.73;0.50;;;5.40;92.50;;;;;;5267464;22;20032;-80
2022/12/06 10:31:53;;;;;;;0.90;0.40;;;5.40;92.40;;;;;;5141374;27;20124;-80
2022/12/06 10:34:42;;;;;;;1.10;0.60;;;5.50;92.40;;;;;;5118813;28;20058;-80
2022/12/06 10:37:37;;;;;;;0.73;0.40;;;5.50;92.40;;;;;;5156003;27;20058;-80
2022/12/06 10:40:22;;;;;;;0.63;0.40;;;5.60;92.40;;;;;;5103414;28;20019;-80
2022/12/06 10:42:58;;;;;;;1.50;0.50;;;5.60;92.30;;;;;;5124798;27;20055;-79
2022/12/06 10:48:34;;;;;;;1.60;0.50;;;5.70;92.20;;;;;;5127013;28;20051;-80
2022/12/06 10:51:06;;;;;;;0.52;0.40;;;5.70;92.20;;;;;;5114572;28;20445;-80
2022/12/06 10:53:39;;;;;;;0.30;0.30;;;5.60;92.20;;;;;;5113558;28;20539;-80
2022/12/06 10:56:19;;;;;;;0.40;0.40;;;5.70;92.20;;;;;;5112731;28;20047;-79
2022/12/06 10:58:53;;;;;;;0.30;0.25;;;5.60;92.40;;;;;;5114435;28;20095;-79
2022/12/06 11:01:23;;;;;;;0.30;0.30;;;5.60;92.20;;;;;;5118377;28;20035;-80
2022/12/06 11:04:01;;;;;;;0.73;0.30;;;5.60;92.20;;;;;;5136946;28;20070;-79
2022/12/06 11:06:34;;;;;;;0.22;0.22;;;5.70;92.30;;;;;;5079091;28;20056;-79
2022/12/06 11:09:19;;;;;;;1.30;0.40;;;5.70;92.30;;;;;;5042899;28;20033;-79
2022/12/06 11:11:48;;;;;;;0.45;0.40;;;5.80;92.30;;;;;;5040566;28;20057;-79
2022/12/06 11:14:36;;;;;;;0.43;0.20;;;5.70;92.30;;;;;;5042775;28;20112;-79
2022/12/06 11:17:10;;;;;;;0.50;0.50;;;5.90;92.20;;;;;;5073450;28;20136;-79
2022/12/06 11:19:38;;;;;;;0.10;0.10;;;5.90;92.20;;;;;;5047469;28;20024;-78
2022/12/06 11:22:33;;;;;;;0.60;0.40;;;5.90;92.10;;;;;;5052156;28;20513;-79
2022/12/06 11:25:22;;;;;;;0.30;0.30;;;5.90;92.00;;;;;;5067980;28;20037;-80
2022/12/06 11:27:53;;;;;;;1.30;0.57;;;6.00;92.00;;;;;;5066021;28;20033;-79
2022/12/06 11:30:20;;;;;;;1.40;0.55;;;6.10;92.00;;;;;;5029043;28;20044;-79
2022/12/06 11:32:48;;;;;;;0.63;0.30;;;6.10;91.90;;;;;;5047507;28;20209;-79
2022/12/06 11:35:18;;;;;;;0.30;0.30;;;6.10;91.90;;;;;;5062421;28;20033;-80
2022/12/06 11:37:45;;;;;;;0.68;0.40;;;6.30;91.90;;;;;;5075599;28;20032;-80
2022/12/06 11:40:30;;;;;;;0.47;0.47;;;6.30;91.90;;;;;;5133265;28;20385;-79
2022/12/06 11:42:59;;;;;;;0.90;0.30;;;6.50;91.80;;;;;;5123260;28;20074;-79
2022/12/06 11:45:28;;;;;;;0.40;0.38;;;6.70;91.60;;;;;;5120809;28;20046;-79
2022/12/06 11:47:55;;;;;;;0.30;0.30;;;6.70;91.60;;;;;;5120732;28;20374;-79
2022/12/06 11:50:23;;;;;;;0.77;0.50;;;6.70;91.40;;;;;;5119371;28;20043;-79
2022/12/06 11:53:01;;;;;;;0.35;0.30;;;6.80;91.40;;;;;;5116569;28;20413;-79
2022/12/06 11:55:33;;;;;;;0.55;0.40;;;6.80;91.30;;;;;;5103493;28;20031;-79
2022/12/06 11:58:07;;;;;;;;;;;6.90;91.30;;;;;;5137300;28;20039;-79
2022/12/06 12:00:33;;;;;;;0.68;0.47;;;6.90;91.30;;;;;;5133669;27;19904;-79
2022/12/06 12:02:59;;;;;;;0.30;0.30;;;6.90;91.30;;;;;;5135254;28;20042;-79
2022/12/06 12:05:32;;;;;;;0.60;0.40;;;7.00;91.30;;;;;;5116096;28;20516;-79
2022/12/06 12:08:04;;;;;;;0.70;0.30;;;6.80;91.20;;;;;;5133946;28;20058;-79
2022/12/06 12:10:37;;;;;;;0.77;0.43;;;6.80;91.20;;;;;;5134057;28;20124;-79
2022/12/06 12:16:17;;;;;;;0.55;0.43;;;6.90;91.20;;;;;;5117692;28;20036;-79
2022/12/06 12:19:02;;;;;;;1.13;0.52;;;6.80;91.20;;;;;;5115928;28;20377;-79
2022/12/06 12:21:44;;;;;;;0.98;0.50;;;6.80;91.20;;;;;;5135193;28;20515;-79
2022/12/06 12:24:41;;;;;;;0.20;0.20;;;6.90;91.30;;;;;;5100463;28;20130;-79
2022/12/06 12:27:29;;;;;;;0.50;0.40;;;7.00;91.30;;;;;;5137700;28;20469;-80
2022/12/06 12:30:17;;;;;;;0.50;0.30;;;7.00;91.30;;;;;;5135039;28;20088;-80
2022/12/06 12:32:44;;;;;;;0.30;0.30;;;6.90;91.20;;;;;;5116339;28;20043;-79
2022/12/06 12:35:27;;;;;;;0.50;0.50;;;7.00;91.20;;;;;;5114744;28;20039;-79
2022/12/06 12:37:58;;;;;;;0.80;0.40;;;7.00;91.20;;;;;;5116986;28;20035;-78
2022/12/06 12:40:28;;;;;;;0.32;0.30;;;7.00;91.10;;;;;;5138137;28;21198;-79
2022/12/06 12:43:28;;;;;;;0.85;0.30;;;7.00;91.10;;;;;;5135037;28;20114;-80
2022/12/06 12:46:15;;;;;;;0.68;0.40;;;7.10;91.10;;;;;;5131064;28;20396;-78
2022/12/06 12:48:44;;;;;;;0.50;0.43;;;7.10;91.10;;;;;;5114611;28;20389;-79
2022/12/06 12:51:31;;;;;;;0.35;0.28;;;7.10;91.10;;;;;;5133120;28;20118;-78
2022/12/06 12:54:00;;;;;;;0.30;0.30;;;7.10;91.10;;;;;;5114308;28;20531;-79
2022/12/06 12:56:30;;;;;;;1.35;0.60;;;7.10;91.10;;;;;;5114290;28;20096;-79
2022/12/06 12:58:56;;;;;;;0.80;0.40;;;7.10;91.00;;;;;;5113306;28;20028;-79
2022/12/06 13:01:53;;;;;;;0.20;0.20;;;7.20;91.10;;;;;;5112656;28;20039;-78
2022/12/06 13:04:40;;;;;;;0.65;0.38;;;7.20;91.10;;;;;;5119185;28;20032;-78
2022/12/06 13:07:20;;;;;;;0.60;0.52;;;7.10;91.00;;;;;;5114698;28;20035;-78
2022/12/06 13:10:00;;;;;;;1.07;0.37;;;7.10;91.00;;;;;;5132950;28;20084;-77
2022/12/06 13:12:37;;;;;;;0.32;0.30;;;7.10;91.10;;;;;;5116591;28;20858;-77
2022/12/06 13:15:31;;;;;;;0.47;0.38;;;7.30;91.10;;;;;;5136495;28;20039;-78
2022/12/06 13:18:05;;;;;;;0.82;0.50;;;7.10;91.10;;;;;;5117589;28;20076;-78
2022/12/06 13:20:33;;;;;;;0.88;0.60;;;7.20;91.10;;;;;;5117452;28;20076;-78
2022/12/06 13:23:08;;;;;;;0.60;0.40;;;7.10;91.10;;;;;;5135702;28;20521;-78
2022/12/06 13:25:34;;;;;;;0.40;0.30;;;7.10;91.00;;;;;;5117410;28;20077;-77
2022/12/06 13:28:03;;;;;;;0.88;0.30;;;7.10;91.10;;;;;;5136166;28;20035;-78
2022/12/06 13:30:31;;;;;;;0.40;0.38;;;7.10;91.10;;;;;;5099843;28;20066;-78
2022/12/06 13:33:01;;;;;;;3.33;0.70;;;7.10;91.10;;;;;;5100632;28;20081;-78
2022/12/06 13:35:44;;;;;;;1.67;0.47;;;7.10;91.10;;;;;;5117559;28;20147;-78
2022/12/06 13:38:30;;;;;;;1.27;0.50;;;7.10;91.10;;;;;;5101558;28;20408;-78
2022/12/06 13:40:58;;;;;;;0.40;0.40;;;7.10;91.10;;;;;;5055212;28;20538;-78
2022/12/06 13:43:50;;;;;;;2.25;0.47;;;7.10;91.10;;;;;;5032618;28;20041;-81
2022/12/06 13:46:31;;;;;;;0.70;0.40;;;7.10;91.10;;;;;;5015121;28;20086;-77
2022/12/06 13:49:51;;;;;;;2.13;0.52;;;7.20;91.10;;;;;;5000394;28;20483;-79
2022/12/06 13:52:52;;;;;;;0.57;0.43;;;7.00;91.10;;;;;;5010636;28;20054;-80
2022/12/06 13:55:59;;;;;;;1.00;0.47;;;7.10;91.10;;;;;;5018010;28;20042;-80
2022/12/06 13:58:50;;;;;;;1.27;0.35;;;7.10;91.10;;;;;;5005053;28;20145;-78
2022/12/06 14:01:38;;;;;;;0.90;0.53;;;7.10;91.10;;;;;;5032385;28;20045;-78
2022/12/06 14:04:29;;;;;;;1.02;0.40;;;7.10;91.10;;;;;;5031856;28;20523;-78
2022/12/06 14:07:05;;;;;;;0.50;0.45;;;6.90;91.00;;;;;;5015147;28;20475;-78
2022/12/06 14:09:45;;;;;;;1.65;0.40;;;7.00;91.00;;;;;;5032554;28;20468;-78
2022/12/06 14:12:21;;;;;;;0.85;0.60;;;7.00;91.00;;;;;;5054532;28;20075;-79